Time;durP1;ratioP1;P1;durP2;ratioP2;P2;SDS_P1;SDS_P2;PMS_P1;PMS_P2;Temp;Humidity;BMP_temperature;BMP_pressure;BME280_temperature;BME280_humidity;BME280_pressure;Samples;Min_cycle;Max_cycle;Signal;HPM_P1;HPM_P2
2022/04/11 00:00:17;;;;;;;4.38;2.90;;;8.70;99.90;;;;;;5096778;28;20646;-57
2022/04/11 00:02:43;;;;;;;3.53;3.20;;;8.70;99.90;;;;;;5096744;28;20168;-57
2022/04/11 00:05:09;;;;;;;4.35;3.20;;;8.70;99.90;;;;;;5096887;28;20186;-57
2022/04/11 00:07:34;;;;;;;4.05;3.08;;;8.70;99.90;;;;;;5096728;28;20166;-57
2022/04/11 00:10:00;;;;;;;3.92;3.05;;;8.60;99.90;;;;;;5096768;28;20260;-57
2022/04/11 00:12:26;;;;;;;3.13;2.83;;;8.70;99.90;;;;;;5096612;28;20188;-56
2022/04/11 00:14:52;;;;;;;4.60;3.53;;;8.70;99.90;;;;;;5096347;28;20174;-54
2022/04/11 00:17:18;;;;;;;5.57;3.50;;;8.70;99.90;;;;;;5096344;28;20182;-57
2022/04/11 00:19:44;;;;;;;3.88;3.03;;;8.60;99.90;;;;;;5096287;28;20514;-57
2022/04/11 00:22:09;;;;;;;3.97;3.33;;;8.60;99.90;;;;;;5096454;28;20228;-57
2022/04/11 00:24:35;;;;;;;4.00;3.05;;;8.60;99.90;;;;;;5096465;28;20187;-57
2022/04/11 00:27:01;;;;;;;4.25;3.10;;;8.50;99.90;;;;;;5096355;28;20205;-57
2022/04/11 00:29:26;;;;;;;4.32;2.97;;;8.50;99.90;;;;;;5096208;28;20202;-56
2022/04/11 00:31:52;;;;;;;3.90;2.97;;;8.50;99.90;;;;;;5096149;28;20571;-56
2022/04/11 00:34:17;;;;;;;3.35;3.05;;;8.40;99.90;;;;;;5077768;28;20178;-56
2022/04/11 00:36:43;;;;;;;3.58;3.08;;;8.50;99.90;;;;;;5096047;28;20205;-56
2022/04/11 00:39:09;;;;;;;3.33;3.03;;;8.50;99.90;;;;;;5096079;28;20698;-56
2022/04/11 00:41:34;;;;;;;4.63;3.22;;;8.60;99.90;;;;;;5095904;28;20200;-57
2022/04/11 00:44:00;;;;;;;3.92;3.00;;;8.60;99.90;;;;;;5096041;28;20174;-55
2022/04/11 00:46:25;;;;;;;4.45;3.45;;;8.60;99.90;;;;;;5095784;28;20193;-56
2022/04/11 00:48:51;;;;;;;3.20;2.90;;;8.50;99.90;;;;;;5095684;28;20188;-56
2022/04/11 00:51:21;;;;;;;4.72;3.42;;;8.60;99.90;;;;;;5095944;28;20174;-57
2022/04/11 00:53:48;;;;;;;3.92;2.97;;;8.50;99.90;;;;;;5095880;28;20517;-57
2022/04/11 00:56:16;;;;;;;3.63;3.10;;;8.50;99.90;;;;;;5095780;28;20298;-57
2022/04/11 00:58:41;;;;;;;3.65;3.25;;;8.40;99.90;;;;;;5076418;28;20641;-57
2022/04/11 01:01:08;;;;;;;4.22;3.33;;;8.40;99.90;;;;;;5095631;28;20181;-57
2022/04/11 01:03:34;;;;;;;3.63;3.00;;;8.40;99.90;;;;;;5095565;28;20196;-54
2022/04/11 01:06:00;;;;;;;3.50;3.20;;;8.40;99.90;;;;;;5095546;28;20173;-56
2022/04/11 01:08:27;;;;;;;3.92;3.15;;;8.40;99.90;;;;;;5095931;28;20273;-57
2022/04/11 01:10:54;;;;;;;3.10;2.80;;;8.40;99.90;;;;;;5095357;28;20198;-57
2022/04/11 01:13:20;;;;;;;3.70;3.17;;;8.40;99.90;;;;;;5095317;28;20209;-57
2022/04/11 01:15:58;;;;;;;4.18;3.42;;;8.30;99.90;;;;;;5095370;28;20237;-57
2022/04/11 01:18:25;;;;;;;3.60;3.30;;;8.30;99.90;;;;;;5095537;28;20174;-56
2022/04/11 01:20:51;;;;;;;4.40;3.25;;;8.20;99.90;;;;;;5095284;28;20185;-57
2022/04/11 01:23:17;;;;;;;3.75;3.30;;;8.20;99.90;;;;;;5077180;28;20201;-56
2022/04/11 01:25:48;;;;;;;3.88;3.38;;;8.10;99.90;;;;;;5095038;28;20220;-57
2022/04/11 01:28:14;;;;;;;4.00;3.30;;;8.00;99.90;;;;;;5095117;28;20231;-55
2022/04/11 01:30:39;;;;;;;4.35;3.30;;;8.00;99.90;;;;;;5095101;28;20628;-57
2022/04/11 01:33:19;;;;;;;3.83;3.42;;;7.90;99.90;;;;;;5060543;28;20636;-57
2022/04/11 01:35:45;;;;;;;3.47;3.17;;;7.90;99.90;;;;;;5095157;28;20213;-57
2022/04/11 01:38:10;;;;;;;4.32;3.40;;;7.80;99.90;;;;;;5094965;28;20177;-55
2022/04/11 01:40:36;;;;;;;4.68;4.10;;;7.80;99.90;;;;;;5076743;28;20182;-55
2022/04/11 01:43:02;;;;;;;4.20;3.53;;;7.80;99.90;;;;;;5094623;28;20170;-56
2022/04/11 01:45:27;;;;;;;3.88;3.28;;;7.70;99.90;;;;;;5094654;28;20182;-56
2022/04/11 01:47:53;;;;;;;4.55;3.60;;;7.60;99.90;;;;;;5094803;28;20230;-57
2022/04/11 01:50:19;;;;;;;4.43;3.75;;;7.60;99.90;;;;;;5094767;28;20174;-57
2022/04/11 01:52:44;;;;;;;4.53;3.90;;;7.60;99.90;;;;;;5094624;28;20629;-57
2022/04/11 01:55:10;;;;;;;4.97;3.80;;;7.60;99.90;;;;;;5094452;28;20174;-57
2022/04/11 01:57:35;;;;;;;3.85;3.42;;;7.50;99.90;;;;;;5094433;28;20205;-56
2022/04/11 02:00:01;;;;;;;4.00;3.35;;;7.50;99.90;;;;;;5094640;28;20627;-56
2022/04/11 02:02:27;;;;;;;3.97;3.58;;;7.50;99.90;;;;;;5094609;28;20166;-56
2022/04/11 02:04:52;;;;;;;4.50;3.88;;;7.50;99.90;;;;;;5076334;28;20193;-56
2022/04/11 02:07:18;;;;;;;5.93;3.90;;;7.40;99.90;;;;;;5094464;28;20655;-57
2022/04/11 02:09:44;;;;;;;4.18;3.67;;;7.40;99.90;;;;;;5094260;28;20264;-56
2022/04/11 02:12:10;;;;;;;5.78;4.55;;;7.40;99.90;;;;;;5094205;28;20536;-56
2022/04/11 02:14:35;;;;;;;4.93;3.72;;;7.40;99.90;;;;;;5094318;28;20173;-57
2022/04/11 02:17:01;;;;;;;4.47;3.83;;;7.40;99.90;;;;;;5094272;28;20205;-56
2022/04/11 02:19:27;;;;;;;4.25;3.85;;;7.40;99.90;;;;;;5076487;28;20179;-56
2022/04/11 02:21:52;;;;;;;4.20;3.63;;;7.30;99.90;;;;;;5075960;28;20182;-55
2022/04/11 02:24:18;;;;;;;5.18;3.72;;;7.30;99.90;;;;;;5094019;28;20532;-56
2022/04/11 02:26:43;;;;;;;4.93;4.25;;;7.30;99.90;;;;;;5093741;28;20177;-55
2022/04/11 02:29:09;;;;;;;4.05;3.60;;;7.20;99.90;;;;;;5094050;28;20236;-56
2022/04/11 02:31:35;;;;;;;4.20;3.80;;;7.20;99.90;;;;;;5094175;28;20173;-55
2022/04/11 02:34:00;;;;;;;4.78;3.78;;;7.30;99.90;;;;;;5094221;28;20553;-55
2022/04/11 02:36:26;;;;;;;4.80;4.20;;;7.20;99.90;;;;;;5093670;28;20216;-55
2022/04/11 02:38:52;;;;;;;5.38;4.18;;;7.10;99.90;;;;;;5093805;28;20189;-55
2022/04/11 02:41:18;;;;;;;5.18;4.47;;;7.10;99.90;;;;;;5093629;28;20177;-53
2022/04/11 02:43:44;;;;;;;4.78;3.70;;;7.10;99.90;;;;;;5093852;28;20181;-55
2022/04/11 02:46:09;;;;;;;5.15;4.65;;;7.10;99.90;;;;;;5093700;28;20178;-55
2022/04/11 02:48:36;;;;;;;5.45;3.80;;;7.10;99.90;;;;;;5093703;28;20656;-56
2022/04/11 02:51:02;;;;;;;4.30;3.90;;;7.00;99.90;;;;;;5093550;28;20184;-56
2022/04/11 02:53:27;;;;;;;6.18;4.10;;;6.90;99.90;;;;;;5093689;28;20172;-55
2022/04/11 02:55:53;;;;;;;4.03;3.60;;;6.90;99.90;;;;;;5093325;28;20292;-56
2022/04/11 02:58:19;;;;;;;4.90;4.30;;;6.90;99.90;;;;;;5093975;28;20659;-56
2022/04/11 03:00:44;;;;;;;6.45;4.28;;;6.90;99.90;;;;;;5093469;28;20170;-57
2022/04/11 03:03:13;;;;;;;4.95;3.85;;;6.90;99.90;;;;;;5093263;28;20188;-56
2022/04/11 03:05:38;;;;;;;4.93;4.03;;;6.90;99.90;;;;;;5093380;28;20280;-56
2022/04/11 03:08:04;;;;;;;5.82;4.20;;;6.90;99.90;;;;;;5075187;28;20276;-55
2022/04/11 03:10:30;;;;;;;5.15;3.97;;;7.00;99.90;;;;;;5093238;28;20251;-56
2022/04/11 03:12:56;;;;;;;5.57;4.20;;;6.90;99.90;;;;;;5058706;28;20206;-56
2022/04/11 03:15:22;;;;;;;4.88;4.07;;;6.90;99.90;;;;;;5075227;28;20209;-56
2022/04/11 03:17:47;;;;;;;4.68;3.95;;;6.90;99.90;;;;;;5093384;28;20183;-57
2022/04/11 03:20:13;;;;;;;5.68;4.28;;;6.90;99.90;;;;;;5075349;28;20273;-56
2022/04/11 03:22:39;;;;;;;4.75;4.18;;;6.90;99.90;;;;;;5092651;28;20181;-55
2022/04/11 03:25:05;;;;;;;5.07;4.22;;;6.80;99.90;;;;;;5093274;28;20257;-56
2022/04/11 03:27:31;;;;;;;4.32;3.92;;;6.80;99.90;;;;;;5058455;28;20192;-55
2022/04/11 03:29:56;;;;;;;4.68;4.15;;;6.80;99.90;;;;;;5093304;28;20173;-56
2022/04/11 03:32:22;;;;;;;4.40;4.00;;;6.80;99.90;;;;;;5093273;28;20178;-55
2022/04/11 03:34:50;;;;;;;5.88;3.97;;;6.80;99.90;;;;;;5093314;28;20178;-55
2022/04/11 03:37:16;;;;;;;4.32;3.92;;;6.70;99.90;;;;;;5092948;28;20217;-55
2022/04/11 03:39:41;;;;;;;4.05;3.63;;;6.70;99.90;;;;;;5093014;28;20253;-56
2022/04/11 03:42:07;;;;;;;4.57;4.07;;;6.60;99.90;;;;;;5093378;28;20175;-55
2022/04/11 03:44:35;;;;;;;5.40;4.18;;;6.70;99.90;;;;;;5093537;28;20701;-55
2022/04/11 03:47:01;;;;;;;4.65;3.92;;;6.60;99.90;;;;;;5093280;28;20188;-55
2022/04/11 03:49:26;;;;;;;5.07;4.32;;;6.60;99.90;;;;;;5092938;28;20181;-55
2022/04/11 03:51:53;;;;;;;4.80;3.80;;;6.60;99.90;;;;;;5093029;28;20242;-56
2022/04/11 03:54:18;;;;;;;5.30;4.25;;;6.60;99.90;;;;;;5092711;28;20185;-55
2022/04/11 03:56:44;;;;;;;5.47;3.78;;;6.50;99.90;;;;;;5093017;28;20270;-55
2022/04/11 03:59:10;;;;;;;4.15;3.75;;;6.50;99.90;;;;;;5092906;28;20539;-55
2022/04/11 04:01:36;;;;;;;5.10;3.92;;;6.50;99.90;;;;;;5092919;28;20628;-55
2022/04/11 04:04:02;;;;;;;5.43;4.07;;;6.50;99.90;;;;;;5093042;28;20189;-55
2022/04/11 04:06:28;;;;;;;4.78;3.25;;;6.50;99.90;;;;;;5092763;28;20310;-55
2022/04/11 04:08:53;;;;;;;4.57;3.72;;;6.50;99.90;;;;;;5092710;28;20178;-57
2022/04/11 04:11:19;;;;;;;5.68;3.95;;;6.50;99.90;;;;;;5092716;28;20177;-55
2022/04/11 04:13:45;;;;;;;5.05;4.00;;;6.40;99.90;;;;;;5092814;28;20181;-55
2022/04/11 04:16:10;;;;;;;5.70;4.00;;;6.40;99.90;;;;;;5092778;28;20209;-56
2022/04/11 04:18:36;;;;;;;5.50;4.15;;;6.30;99.90;;;;;;5092694;28;20177;-55
2022/04/11 04:21:01;;;;;;;4.45;3.83;;;6.40;99.90;;;;;;5092623;28;20252;-55
2022/04/11 04:23:27;;;;;;;4.50;4.05;;;6.40;99.90;;;;;;5092601;28;20174;-54
2022/04/11 04:25:53;;;;;;;4.05;3.60;;;6.40;99.90;;;;;;5092755;28;20176;-55
2022/04/11 04:28:18;;;;;;;5.03;3.60;;;6.40;99.90;;;;;;5092832;28;20182;-56
2022/04/11 04:30:45;;;;;;;4.18;3.58;;;6.40;99.90;;;;;;5092675;28;20629;-56
2022/04/11 04:33:12;;;;;;;5.78;4.20;;;6.40;99.90;;;;;;5092791;28;20196;-55
2022/04/11 04:35:38;;;;;;;5.30;3.85;;;6.30;99.90;;;;;;5096045;28;20216;-55
2022/04/11 04:38:04;;;;;;;5.93;3.78;;;6.30;99.90;;;;;;5077914;28;20227;-55
2022/04/11 04:40:30;;;;;;;4.95;4.15;;;6.30;99.90;;;;;;5096392;28;20625;-55
2022/04/11 04:42:56;;;;;;;5.45;4.00;;;6.30;99.90;;;;;;5096135;28;20180;-55
2022/04/11 04:45:23;;;;;;;5.25;4.05;;;6.20;99.90;;;;;;5096030;28;20182;-55
2022/04/11 04:47:49;;;;;;;4.38;3.83;;;6.20;99.90;;;;;;5095950;28;20166;-54
2022/04/11 04:50:15;;;;;;;5.03;4.07;;;6.20;99.90;;;;;;5095818;28;20190;-55
2022/04/11 04:52:41;;;;;;;5.63;4.15;;;6.20;99.90;;;;;;5095669;28;20620;-55
2022/04/11 04:55:07;;;;;;;14.65;4.88;;;6.20;99.90;;;;;;5095740;28;20185;-56
2022/04/11 04:57:33;;;;;;;6.05;4.55;;;6.20;99.90;;;;;;5095871;28;20170;-55
2022/04/11 04:59:59;;;;;;;9.57;5.20;;;6.30;99.90;;;;;;5095638;28;20519;-55
2022/04/11 05:02:25;;;;;;;6.82;4.68;;;6.30;99.90;;;;;;5095236;28;20181;-54
2022/04/11 05:04:50;;;;;;;6.38;4.80;;;6.30;99.90;;;;;;5094211;28;20201;-58
2022/04/11 05:07:16;;;;;;;6.47;4.20;;;6.30;99.90;;;;;;5094533;28;20186;-58
2022/04/11 05:09:42;;;;;;;10.48;6.00;;;6.30;99.90;;;;;;5095082;28;20189;-59
2022/04/11 05:12:07;;;;;;;5.63;4.53;;;6.30;99.90;;;;;;5095485;28;20186;-58
2022/04/11 05:14:33;;;;;;;8.50;4.65;;;6.40;99.90;;;;;;5094573;28;20200;-58
2022/04/11 05:16:59;;;;;;;7.03;5.30;;;6.40;99.90;;;;;;5094857;28;20265;-58
2022/04/11 05:19:24;;;;;;;6.55;4.47;;;6.40;99.90;;;;;;5095100;28;20185;-58
2022/04/11 05:21:50;;;;;;;9.25;4.28;;;6.40;99.90;;;;;;5095417;28;20209;-58
2022/04/11 05:24:15;;;;;;;13.60;6.38;;;6.50;99.90;;;;;;5095126;28;20181;-58
2022/04/11 05:26:41;;;;;;;8.45;4.47;;;6.50;99.90;;;;;;5095375;28;20181;-58
2022/04/11 05:29:07;;;;;;;5.07;3.78;;;6.60;99.90;;;;;;5095092;28;20170;-58
2022/04/11 05:31:32;;;;;;;9.75;4.20;;;6.60;99.90;;;;;;5095107;28;20203;-58
2022/04/11 05:33:59;;;;;;;8.18;3.83;;;6.60;99.90;;;;;;5094823;28;20224;-58
2022/04/11 05:36:25;;;;;;;4.40;3.42;;;6.60;99.90;;;;;;5094776;28;20220;-58
2022/04/11 05:38:50;;;;;;;5.13;3.72;;;6.70;99.90;;;;;;5095068;28;20184;-58
2022/04/11 05:41:16;;;;;;;6.53;3.95;;;6.80;99.90;;;;;;5094785;28;20637;-58
2022/04/11 05:43:41;;;;;;;8.65;3.90;;;6.80;99.90;;;;;;5094594;28;20177;-58
2022/04/11 05:46:07;;;;;;;5.10;2.92;;;6.80;99.90;;;;;;5094560;28;20205;-58
2022/04/11 05:48:34;;;;;;;4.60;2.70;;;6.90;99.90;;;;;;5094665;28;20259;-58
2022/04/11 05:51:00;;;;;;;5.18;2.83;;;6.90;99.90;;;;;;5076707;28;20615;-59
2022/04/11 05:53:26;;;;;;;5.20;2.90;;;7.00;99.90;;;;;;5094886;28;20195;-58
2022/04/11 05:55:51;;;;;;;6.45;3.10;;;7.00;99.90;;;;;;5094571;28;20209;-58
2022/04/11 05:58:17;;;;;;;2.97;2.67;;;7.10;99.90;;;;;;5094538;28;20256;-58
2022/04/11 06:00:43;;;;;;;3.80;2.42;;;7.10;99.90;;;;;;5094544;28;20177;-58
2022/04/11 06:03:08;;;;;;;3.95;2.47;;;7.10;99.90;;;;;;5094082;28;20327;-58
2022/04/11 06:05:36;;;;;;;2.83;2.63;;;7.20;99.90;;;;;;5094375;28;20185;-58
2022/04/11 06:08:02;;;;;;;2.95;2.70;;;7.30;99.90;;;;;;5094545;28;20177;-58
2022/04/11 06:10:28;;;;;;;3.50;2.90;;;7.50;99.90;;;;;;5094350;28;20166;-58
2022/04/11 06:12:54;;;;;;;4.05;2.85;;;7.60;99.90;;;;;;5094203;28;20177;-58
2022/04/11 06:15:19;;;;;;;3.42;3.05;;;7.70;99.90;;;;;;5094061;28;20181;-58
2022/04/11 06:17:45;;;;;;;3.47;3.17;;;7.80;99.90;;;;;;5094222;28;20533;-58
2022/04/11 06:20:11;;;;;;;2.85;2.63;;;8.00;99.90;;;;;;5075779;28;20625;-58
2022/04/11 06:22:38;;;;;;;5.35;3.55;;;8.20;99.90;;;;;;5094292;28;20175;-57
2022/04/11 06:25:05;;;;;;;3.25;2.75;;;8.30;99.90;;;;;;5094114;28;20219;-58
2022/04/11 06:27:32;;;;;;;4.78;3.17;;;8.20;99.90;;;;;;5093911;28;20597;-58
2022/04/11 06:29:58;;;;;;;6.07;4.18;;;8.20;99.90;;;;;;5094041;28;20197;-58
2022/04/11 06:32:27;;;;;;;6.80;4.25;;;8.40;99.90;;;;;;5075627;28;20212;-58
2022/04/11 06:34:53;;;;;;;4.78;3.42;;;8.60;99.90;;;;;;5094388;28;20651;-58
2022/04/11 06:37:21;;;;;;;2.50;2.30;;;8.60;99.90;;;;;;5094123;28;20304;-58
2022/04/11 06:39:47;;;;;;;2.80;2.40;;;8.60;99.90;;;;;;5076070;28;20174;-58
2022/04/11 06:42:13;;;;;;;3.55;2.92;;;8.70;99.90;;;;;;5075949;28;20197;-58
2022/04/11 06:44:39;;;;;;;3.03;2.50;;;8.80;99.90;;;;;;5093668;28;20618;-58
2022/04/11 06:47:05;;;;;;;4.22;2.78;;;9.00;99.90;;;;;;5093630;28;20185;-58
2022/04/11 06:49:30;;;;;;;2.35;2.15;;;9.10;99.90;;;;;;5093732;28;20180;-58
2022/04/11 06:51:56;;;;;;;2.83;2.25;;;9.00;99.90;;;;;;5093648;28;20170;-58
2022/04/11 06:54:22;;;;;;;2.75;2.20;;;9.00;99.90;;;;;;5093723;28;20173;-58
2022/04/11 06:56:47;;;;;;;2.58;2.15;;;9.10;99.90;;;;;;5092871;28;20205;-59
2022/04/11 06:59:15;;;;;;;1.98;1.83;;;9.40;99.90;;;;;;5093439;28;20174;-58
2022/04/11 07:01:41;;;;;;;1.95;1.85;;;9.40;99.90;;;;;;5093382;28;20174;-59
2022/04/11 07:04:07;;;;;;;2.22;2.03;;;9.60;99.90;;;;;;5093620;28;20189;-59
2022/04/11 07:06:33;;;;;;;1.90;1.80;;;9.80;99.90;;;;;;5093589;28;20185;-58
2022/04/11 07:08:58;;;;;;;2.08;1.88;;;9.90;99.90;;;;;;5093611;28;20698;-58
2022/04/11 07:11:24;;;;;;;2.22;1.80;;;9.80;99.90;;;;;;5093235;28;20281;-58
2022/04/11 07:13:49;;;;;;;2.42;1.90;;;10.00;99.90;;;;;;5075369;28;20174;-58
2022/04/11 07:16:15;;;;;;;2.40;1.63;;;10.10;99.90;;;;;;5093071;28;20213;-58
2022/04/11 07:18:41;;;;;;;2.78;1.73;;;10.20;99.90;;;;;;5093698;28;20214;-58
2022/04/11 07:21:06;;;;;;;1.50;1.40;;;10.40;99.90;;;;;;5093287;28;20174;-58
2022/04/11 07:23:32;;;;;;;2.05;1.48;;;10.40;99.90;;;;;;5075245;28;20590;-58
2022/04/11 07:25:58;;;;;;;2.13;1.77;;;10.40;99.90;;;;;;5093251;28;20174;-58
2022/04/11 07:28:23;;;;;;;2.22;1.70;;;10.60;99.90;;;;;;5093218;28;20174;-58
2022/04/11 07:30:49;;;;;;;1.50;1.40;;;10.70;99.90;;;;;;5093059;28;20178;-58
2022/04/11 07:33:15;;;;;;;1.92;1.60;;;10.50;99.90;;;;;;5093278;28;20319;-58
2022/04/11 07:35:40;;;;;;;2.28;1.58;;;10.60;99.90;;;;;;5093158;28;20676;-58
2022/04/11 07:38:06;;;;;;;1.80;1.58;;;10.90;99.90;;;;;;5075174;28;20181;-58
2022/04/11 07:40:32;;;;;;;1.67;1.58;;;11.00;99.90;;;;;;5093089;28;20166;-58
2022/04/11 07:42:57;;;;;;;1.75;1.58;;;11.10;99.90;;;;;;5092936;28;20186;-58
2022/04/11 07:45:23;;;;;;;1.45;1.35;;;11.40;99.90;;;;;;5093206;28;20174;-58
2022/04/11 07:47:49;;;;;;;1.45;1.35;;;11.50;99.60;;;;;;5093085;28;20192;-58
2022/04/11 07:50:15;;;;;;;1.98;1.55;;;11.30;99.10;;;;;;5093035;28;20177;-58
2022/04/11 07:52:43;;;;;;;1.48;1.30;;;11.50;99.90;;;;;;5093110;28;20170;-59
2022/04/11 07:55:10;;;;;;;1.73;1.30;;;11.70;99.90;;;;;;5092818;28;20170;-59
2022/04/11 07:57:37;;;;;;;2.03;1.30;;;11.70;99.40;;;;;;5092936;28;20171;-58
2022/04/11 08:00:06;;;;;;;1.30;1.20;;;11.80;98.80;;;;;;5092744;28;20634;-58
2022/04/11 08:02:32;;;;;;;1.58;1.30;;;11.80;99.90;;;;;;5092925;28;20181;-58
2022/04/11 08:05:01;;;;;;;1.67;1.58;;;11.70;99.40;;;;;;5093010;28;20272;-58
2022/04/11 08:07:30;;;;;;;2.13;1.33;;;11.80;98.80;;;;;;5093717;28;20170;-59
2022/04/11 08:09:55;;;;;;;1.40;1.30;;;11.90;97.80;;;;;;5096830;28;20183;-58
2022/04/11 08:12:21;;;;;;;1.30;1.20;;;12.10;99.90;;;;;;5096543;28;20170;-58
2022/04/11 08:14:47;;;;;;;1.38;1.27;;;12.20;98.80;;;;;;5096780;28;20174;-58
2022/04/11 08:17:13;;;;;;;1.30;1.20;;;12.20;97.40;;;;;;5096339;28;20292;-58
2022/04/11 08:19:38;;;;;;;1.05;1.05;;;12.20;99.50;;;;;;5078339;28;20277;-58
2022/04/11 08:22:05;;;;;;;1.30;1.13;;;12.30;99.30;;;;;;5078388;28;20178;-58
2022/04/11 08:24:30;;;;;;;1.75;1.20;;;12.20;98.30;;;;;;5096347;28;20227;-58
2022/04/11 08:26:58;;;;;;;1.17;1.05;;;12.20;97.40;;;;;;5096320;28;20637;-59
2022/04/11 08:29:27;;;;;;;1.33;1.00;;;12.50;97.80;;;;;;5096282;28;20181;-59
2022/04/11 08:31:53;;;;;;;1.40;1.30;;;12.50;97.00;;;;;;5078411;28;20170;-58
2022/04/11 08:34:19;;;;;;;1.13;1.02;;;12.60;97.80;;;;;;5096425;28;20193;-59
2022/04/11 08:36:45;;;;;;;1.50;1.35;;;12.90;96.30;;;;;;5096235;28;20248;-59
2022/04/11 08:39:11;;;;;;;1.45;1.13;;;12.90;96.50;;;;;;5096099;28;20186;-58
2022/04/11 08:41:37;;;;;;;0.95;0.95;;;12.80;92.90;;;;;;5096088;28;20609;-58
2022/04/11 08:44:05;;;;;;;1.20;1.10;;;12.80;94.20;;;;;;5095940;28;20524;-58
2022/04/11 08:46:33;;;;;;;1.80;0.90;;;12.80;95.10;;;;;;5096017;28;20609;-58
2022/04/11 08:49:07;;;;;;;1.35;1.00;;;13.00;93.10;;;;;;5095935;28;20170;-58
2022/04/11 08:51:35;;;;;;;0.90;0.90;;;13.00;93.80;;;;;;5061225;28;20173;-58
2022/04/11 08:54:02;;;;;;;1.85;1.02;;;13.20;94.70;;;;;;5095851;28;20166;-59
2022/04/11 08:56:29;;;;;;;1.10;0.95;;;13.00;91.90;;;;;;5095646;28;20568;-58
2022/04/11 08:58:55;;;;;;;0.98;0.90;;;13.20;94.50;;;;;;5095863;28;20173;-59
2022/04/11 09:01:21;;;;;;;1.00;0.95;;;13.50;93.40;;;;;;5095858;28;20181;-59
2022/04/11 09:03:48;;;;;;;1.98;1.08;;;13.30;89.50;;;;;;5095839;28;20225;-59
2022/04/11 09:06:15;;;;;;;1.10;0.90;;;13.20;90.60;;;;;;5095747;28;20284;-59
2022/04/11 09:08:49;;;;;;;1.48;0.93;;;13.30;89.50;;;;;;5095780;28;20170;-59
2022/04/11 09:11:30;;;;;;;1.45;1.15;;;13.40;90.30;;;;;;5095679;28;20280;-58
2022/04/11 09:13:57;;;;;;;1.17;1.08;;;13.60;88.40;;;;;;5095532;28;20181;-58
2022/04/11 09:16:23;;;;;;;2.67;1.13;;;13.90;88.20;;;;;;5095424;28;20564;-58
2022/04/11 09:18:52;;;;;;;1.00;0.90;;;13.80;83.20;;;;;;5094623;28;20178;-58
2022/04/11 09:21:25;;;;;;;0.90;0.90;;;13.70;88.20;;;;;;5095145;28;20260;-59
2022/04/11 09:24:19;;;;;;;1.00;0.90;;;13.70;90.40;;;;;;5095495;28;20174;-58
2022/04/11 09:26:46;;;;;;;1.02;0.90;;;13.60;86.70;;;;;;5095395;28;20267;-58
2022/04/11 09:29:12;;;;;;;1.92;1.08;;;13.90;85.60;;;;;;5095083;28;20641;-58
2022/04/11 09:31:38;;;;;;;1.48;0.90;;;14.00;83.80;;;;;;5095022;28;20245;-58
2022/04/11 09:34:27;;;;;;;1.23;1.10;;;14.20;86.80;;;;;;5095436;28;20231;-58
2022/04/11 09:36:58;;;;;;;1.65;0.90;;;14.50;85.10;;;;;;5095048;28;20202;-58
2022/04/11 09:39:30;;;;;;;1.25;1.15;;;14.60;85.10;;;;;;5094973;28;20174;-58
2022/04/11 09:41:56;;;;;;;1.30;1.00;;;14.60;78.00;;;;;;5095172;28;20174;-58
2022/04/11 09:44:29;;;;;;;1.17;0.90;;;14.50;82.50;;;;;;5094794;28;20181;-58
2022/04/11 09:47:00;;;;;;;1.05;0.90;;;14.80;81.70;;;;;;5094890;28;20185;-58
2022/04/11 09:49:26;;;;;;;1.25;1.00;;;14.80;83.00;;;;;;5094770;28;20166;-59
2022/04/11 09:52:09;;;;;;;2.08;1.10;;;14.80;74.70;;;;;;5094774;28;20170;-58
2022/04/11 09:54:43;;;;;;;1.52;1.30;;;14.70;72.40;;;;;;5093925;28;20169;-58
2022/04/11 09:57:17;;;;;;;1.42;1.05;;;14.60;71.00;;;;;;5075724;28;20201;-58
2022/04/11 09:59:43;;;;;;;1.83;1.65;;;14.70;76.90;;;;;;5094535;28;20174;-58
2022/04/11 10:02:12;;;;;;;1.85;1.33;;;14.70;74.00;;;;;;5094481;28;20197;-58
2022/04/11 10:04:39;;;;;;;1.20;1.10;;;14.80;65.90;;;;;;5094712;28;20272;-58
2022/04/11 10:07:09;;;;;;;1.80;1.35;;;14.60;69.40;;;;;;5094187;28;20181;-58
2022/04/11 10:09:35;;;;;;;2.33;1.30;;;14.60;64.40;;;;;;5094595;28;20166;-58
2022/04/11 10:12:02;;;;;;;1.38;1.13;;;14.70;72.20;;;;;;5094601;28;20212;-58
2022/04/11 10:14:27;;;;;;;2.72;1.70;;;14.80;65.10;;;;;;5094372;28;20327;-58
2022/04/11 10:16:56;;;;;;;1.90;1.52;;;14.80;64.80;;;;;;5094209;28;20210;-58
2022/04/11 10:19:29;;;;;;;1.55;1.05;;;14.70;62.90;;;;;;5094143;28;20643;-58
2022/04/11 10:21:59;;;;;;;1.10;1.00;;;14.80;64.70;;;;;;5094427;28;20154;-58
2022/04/11 10:24:39;;;;;;;1.17;1.08;;;15.00;63.40;;;;;;5094349;28;20170;-59
2022/04/11 10:27:38;;;;;;;1.35;1.00;;;15.10;63.20;;;;;;5094200;28;20170;-59
2022/04/11 10:30:25;;;;;;;0.90;0.90;;;15.40;65.80;;;;;;5038819;28;20648;-58
2022/04/11 10:32:55;;;;;;;0.98;0.93;;;15.60;67.10;;;;;;5094035;28;20232;-58
2022/04/11 10:35:33;;;;;;;1.42;1.15;;;15.80;62.70;;;;;;5093917;28;20178;-58
2022/04/11 10:37:58;;;;;;;1.23;1.08;;;15.90;62.50;;;;;;5093809;28;20255;-58
2022/04/11 10:40:24;;;;;;;2.53;1.13;;;15.90;62.30;;;;;;5093708;28;20253;-58
2022/04/11 10:43:04;;;;;;;1.33;0.93;;;15.70;59.10;;;;;;5093955;28;20170;-58
2022/04/11 10:45:41;;;;;;;2.17;0.90;;;15.60;57.10;;;;;;5093700;28;20181;-58
2022/04/11 10:48:08;;;;;;;0.95;0.75;;;15.40;59.20;;;;;;5093956;28;20555;-58
2022/04/11 10:50:36;;;;;;;1.65;1.02;;;15.20;57.80;;;;;;5093617;28;20261;-59
2022/04/11 10:53:09;;;;;;;1.70;0.90;;;15.00;57.60;;;;;;5093600;28;20644;-59
2022/04/11 10:55:36;;;;;;;0.70;0.70;;;15.00;57.40;;;;;;5093645;28;20671;-58
2022/04/11 10:58:03;;;;;;;1.55;0.90;;;15.20;58.20;;;;;;5093643;28;20170;-58
2022/04/11 11:00:33;;;;;;;0.70;0.70;;;15.00;55.00;;;;;;5093571;28;20174;-59
2022/04/11 11:03:02;;;;;;;0.70;0.70;;;14.90;54.60;;;;;;5093782;28;20196;-58
2022/04/11 11:05:28;;;;;;;0.77;0.77;;;15.00;56.80;;;;;;5093439;28;20201;-59
2022/04/11 11:08:12;;;;;;;0.73;0.73;;;15.10;56.50;;;;;;5093578;28;20240;-58
2022/04/11 11:10:58;;;;;;;1.17;0.98;;;15.20;54.80;;;;;;5093375;28;20170;-58
2022/04/11 11:13:36;;;;;;;1.10;0.80;;;15.40;56.00;;;;;;5093378;28;20319;-58
2022/04/11 11:16:08;;;;;;;1.42;0.90;;;15.80;57.20;;;;;;5093116;28;20201;-58
2022/04/11 11:18:51;;;;;;;1.35;1.25;;;15.70;55.40;;;;;;5093716;28;20170;-58
2022/04/11 11:21:22;;;;;;;1.80;1.50;;;15.90;56.00;;;;;;5093232;28;20170;-59
2022/04/11 11:24:12;;;;;;;0.80;0.80;;;16.10;56.60;;;;;;5075068;28;20232;-58
2022/04/11 11:26:52;;;;;;;1.10;0.88;;;15.90;52.80;;;;;;5093327;28;20193;-59
2022/04/11 11:29:26;;;;;;;1.58;1.02;;;15.80;57.00;;;;;;5093172;28;20248;-58
2022/04/11 11:31:54;;;;;;;1.38;1.05;;;15.90;58.90;;;;;;5093371;28;20173;-58
2022/04/11 11:34:26;;;;;;;1.10;1.00;;;16.00;55.90;;;;;;5093193;28;20174;-59
2022/04/11 11:37:03;;;;;;;2.08;0.82;;;15.90;55.70;;;;;;5093034;28;20653;-58
2022/04/11 11:39:31;;;;;;;0.75;0.75;;;15.70;55.00;;;;;;5093293;28;20235;-58
2022/04/11 11:42:07;;;;;;;1.40;1.00;;;15.90;58.40;;;;;;5093196;28;20170;-58
2022/04/11 11:44:44;;;;;;;0.88;0.88;;;15.90;54.60;;;;;;5097206;28;20213;-59
2022/04/11 11:47:11;;;;;;;0.95;0.90;;;15.70;51.90;;;;;;5097124;28;20174;-58
2022/04/11 11:49:49;;;;;;;1.60;0.98;;;15.50;53.10;;;;;;5097188;28;20170;-59
2022/04/11 11:52:17;;;;;;;1.67;1.05;;;15.70;53.50;;;;;;5097093;28;20182;-58
2022/04/11 11:54:53;;;;;;;1.95;1.15;;;15.60;54.20;;;;;;5097077;28;20185;-58
2022/04/11 11:57:25;;;;;;;1.45;1.00;;;15.50;55.00;;;;;;5096828;28;20205;-58
2022/04/11 12:00:05;;;;;;;1.60;1.42;;;15.80;56.40;;;;;;5096872;28;20162;-58
2022/04/11 12:05:19;;;;;;;1.30;1.15;;;16.10;53.50;;;;;;5097082;28;20334;-60
2022/04/11 12:07:46;;;;;;;1.20;1.10;;;15.80;54.80;;;;;;5096756;28;20181;-58
2022/04/11 12:10:12;;;;;;;1.10;1.00;;;16.00;54.90;;;;;;5096565;28;20174;-59
2022/04/11 12:12:38;;;;;;;1.95;1.20;;;16.10;54.20;;;;;;5096897;28;20666;-58
2022/04/11 12:15:08;;;;;;;1.35;1.00;;;16.00;54.80;;;;;;5096708;28;20173;-59
2022/04/11 12:17:39;;;;;;;1.58;1.30;;;16.10;58.20;;;;;;5096543;28;20684;-58
2022/04/11 12:20:09;;;;;;;1.30;1.15;;;16.40;56.50;;;;;;5078547;28;20232;-58
2022/04/11 12:22:35;;;;;;;1.60;1.23;;;16.60;56.10;;;;;;5096428;28;20629;-59
2022/04/11 12:25:25;;;;;;;2.85;1.20;;;16.50;55.30;;;;;;5096619;28;20490;-59
2022/04/11 12:27:51;;;;;;;0.93;0.82;;;16.50;52.90;;;;;;5096524;28;20256;-59
2022/04/11 12:30:17;;;;;;;1.42;1.20;;;16.30;54.00;;;;;;5096419;28;20696;-59
2022/04/11 12:32:44;;;;;;;1.20;1.10;;;16.30;54.50;;;;;;5096302;28;20640;-59
2022/04/11 12:35:18;;;;;;;1.10;0.90;;;16.30;55.70;;;;;;5096107;28;20245;-59
2022/04/11 12:37:50;;;;;;;1.25;1.15;;;16.50;54.60;;;;;;5096273;28;20226;-59
2022/04/11 12:40:17;;;;;;;1.38;1.20;;;16.60;54.40;;;;;;5096326;28;20380;-59
2022/04/11 12:42:43;;;;;;;1.30;1.20;;;16.50;53.10;;;;;;5096066;28;20182;-59
2022/04/11 12:45:14;;;;;;;1.95;1.42;;;16.60;53.70;;;;;;5095980;28;20219;-59
2022/04/11 12:47:59;;;;;;;1.48;1.30;;;16.60;52.90;;;;;;5095863;28;20594;-59
2022/04/11 12:50:26;;;;;;;1.30;1.20;;;16.60;53.00;;;;;;5096005;28;20256;-59
2022/04/11 12:52:51;;;;;;;1.27;1.15;;;16.50;53.10;;;;;;5095920;28;20510;-59
2022/04/11 12:55:27;;;;;;;1.65;1.30;;;16.60;53.20;;;;;;5094528;28;20239;-59
2022/04/11 12:58:21;;;;;;;1.10;1.00;;;16.60;52.70;;;;;;5095803;28;20173;-59